sensor_id;sensor_type;location;lat;lon;timestamp;temperature;humidity
5520;DHT22;2782;52.362;10.012;2023-09-19T00:00:17;21.60;95.50
5520;DHT22;2782;52.362;10.012;2023-09-19T00:01:19;21.60;95.40
5520;DHT22;2782;52.362;10.012;2023-09-19T00:02:21;21.60;95.40
5520;DHT22;2782;52.362;10.012;2023-09-19T00:03:22;21.60;95.40
5520;DHT22;2782;52.362;10.012;2023-09-19T00:04:23;21.60;95.40
5520;DHT22;2782;52.362;10.012;2023-09-19T00:05:30;21.60;95.40
5520;DHT22;2782;52.362;10.012;2023-09-19T00:06:32;21.60;95.40
5520;DHT22;2782;52.362;10.012;2023-09-19T00:07:32;21.60;95.40
5520;DHT22;2782;52.362;10.012;2023-09-19T00:08:37;21.60;95.30
5520;DHT22;2782;52.362;10.012;2023-09-19T00:09:37;21.60;95.30
5520;DHT22;2782;52.362;10.012;2023-09-19T00:10:39;21.60;95.30
5520;DHT22;2782;52.362;10.012;2023-09-19T00:11:41;21.60;95.30
5520;DHT22;2782;52.362;10.012;2023-09-19T00:12:44;21.60;95.20
5520;DHT22;2782;52.362;10.012;2023-09-19T00:13:48;21.60;95.20
5520;DHT22;2782;52.362;10.012;2023-09-19T00:14:51;21.60;95.20
5520;DHT22;2782;52.362;10.012;2023-09-19T00:15:53;21.60;95.20
5520;DHT22;2782;52.362;10.012;2023-09-19T00:16:56;21.60;95.10
5520;DHT22;2782;52.362;10.012;2023-09-19T00:17:56;21.60;95.10
5520;DHT22;2782;52.362;10.012;2023-09-19T00:18:59;21.60;95.00
5520;DHT22;2782;52.362;10.012;2023-09-19T00:20:05;21.60;95.00
5520;DHT22;2782;52.362;10.012;2023-09-19T00:21:13;21.60;95.00
5520;DHT22;2782;52.362;10.012;2023-09-19T00:22:13;21.60;95.00
5520;DHT22;2782;52.362;10.012;2023-09-19T00:23:16;21.60;95.10
5520;DHT22;2782;52.362;10.012;2023-09-19T00:24:17;21.50;95.00
5520;DHT22;2782;52.362;10.012;2023-09-19T00:25:19;21.60;95.10
5520;DHT22;2782;52.362;10.012;2023-09-19T00:26:20;21.50;95.00
5520;DHT22;2782;52.362;10.012;2023-09-19T00:27:22;21.60;95.10
5520;DHT22;2782;52.362;10.012;2023-09-19T00:28:23;21.50;95.00
5520;DHT22;2782;52.362;10.012;2023-09-19T00:29:26;21.50;94.90
5520;DHT22;2782;52.362;10.012;2023-09-19T00:30:29;21.60;94.90
5520;DHT22;2782;52.362;10.012;2023-09-19T00:31:31;21.60;94.90
5520;DHT22;2782;52.362;10.012;2023-09-19T00:32:32;21.60;95.00
5520;DHT22;2782;52.362;10.012;2023-09-19T00:33:34;21.50;94.90
5520;DHT22;2782;52.362;10.012;2023-09-19T00:34:34;21.50;94.90
5520;DHT22;2782;52.362;10.012;2023-09-19T00:35:36;21.50;94.80
5520;DHT22;2782;52.362;10.012;2023-09-19T00:36:37;21.50;94.80
5520;DHT22;2782;52.362;10.012;2023-09-19T00:37:40;21.50;94.80
5520;DHT22;2782;52.362;10.012;2023-09-19T00:38:40;21.50;94.80
5520;DHT22;2782;52.362;10.012;2023-09-19T00:39:45;21.50;94.80
5520;DHT22;2782;52.362;10.012;2023-09-19T00:40:47;21.50;94.80
5520;DHT22;2782;52.362;10.012;2023-09-19T00:41:49;21.50;94.80
5520;DHT22;2782;52.362;10.012;2023-09-19T00:42:49;21.50;94.70
5520;DHT22;2782;52.362;10.012;2023-09-19T00:43:51;21.40;94.70
5520;DHT22;2782;52.362;10.012;2023-09-19T00:44:53;21.50;94.70
5520;DHT22;2782;52.362;10.012;2023-09-19T00:45:55;21.50;94.70
5520;DHT22;2782;52.362;10.012;2023-09-19T00:46:56;21.40;94.60
5520;DHT22;2782;52.362;10.012;2023-09-19T00:48:01;21.50;94.70
5520;DHT22;2782;52.362;10.012;2023-09-19T00:49:04;21.40;94.60
5520;DHT22;2782;52.362;10.012;2023-09-19T00:50:06;21.40;94.60
5520;DHT22;2782;52.362;10.012;2023-09-19T00:51:08;21.40;94.60
5520;DHT22;2782;52.362;10.012;2023-09-19T00:52:11;21.40;94.60
5520;DHT22;2782;52.362;10.012;2023-09-19T00:53:14;21.40;94.60
5520;DHT22;2782;52.362;10.012;2023-09-19T00:54:19;21.40;94.60
5520;DHT22;2782;52.362;10.012;2023-09-19T00:55:19;21.40;94.60
5520;DHT22;2782;52.362;10.012;2023-09-19T00:56:21;21.40;94.50
5520;DHT22;2782;52.362;10.012;2023-09-19T00:57:23;21.40;94.50
5520;DHT22;2782;52.362;10.012;2023-09-19T00:58:25;21.40;94.50
5520;DHT22;2782;52.362;10.012;2023-09-19T00:59:26;21.40;94.50
5520;DHT22;2782;52.362;10.012;2023-09-19T01:00:29;21.40;94.40
5520;DHT22;2782;52.362;10.012;2023-09-19T01:01:31;21.40;94.40
5520;DHT22;2782;52.362;10.012;2023-09-19T01:02:32;21.40;94.80
5520;DHT22;2782;52.362;10.012;2023-09-19T01:03:34;21.40;94.40
5520;DHT22;2782;52.362;10.012;2023-09-19T01:04:35;21.40;94.40
5520;DHT22;2782;52.362;10.012;2023-09-19T01:05:37;21.40;94.40
5520;DHT22;2782;52.362;10.012;2023-09-19T01:06:38;21.40;94.40
5520;DHT22;2782;52.362;10.012;2023-09-19T01:07:40;21.30;94.60
5520;DHT22;2782;52.362;10.012;2023-09-19T01:08:41;21.30;94.30
5520;DHT22;2782;52.362;10.012;2023-09-19T01:09:42;21.30;94.30
5520;DHT22;2782;52.362;10.012;2023-09-19T01:10:49;21.30;94.30
5520;DHT22;2782;52.362;10.012;2023-09-19T01:11:57;21.30;94.30
5520;DHT22;2782;52.362;10.012;2023-09-19T01:13:05;21.40;94.40
5520;DHT22;2782;52.362;10.012;2023-09-19T01:14:20;21.30;94.20
5520;DHT22;2782;52.362;10.012;2023-09-19T01:15:31;21.30;94.30
5520;DHT22;2782;52.362;10.012;2023-09-19T01:16:47;21.30;94.30
5520;DHT22;2782;52.362;10.012;2023-09-19T01:17:55;21.30;94.20
5520;DHT22;2782;52.362;10.012;2023-09-19T01:19:07;21.30;94.30
5520;DHT22;2782;52.362;10.012;2023-09-19T01:20:22;21.30;94.30
5520;DHT22;2782;52.362;10.012;2023-09-19T01:21:30;21.30;94.40
5520;DHT22;2782;52.362;10.012;2023-09-19T01:22:46;21.30;94.30
5520;DHT22;2782;52.362;10.012;2023-09-19T01:24:09;21.30;94.30
5520;DHT22;2782;52.362;10.012;2023-09-19T01:27:25;21.30;94.40
5520;DHT22;2782;52.362;10.012;2023-09-19T01:28:30;21.20;94.30
5520;DHT22;2782;52.362;10.012;2023-09-19T01:29:39;21.30;94.40
5520;DHT22;2782;52.362;10.012;2023-09-19T01:30:43;21.20;94.40
5520;DHT22;2782;52.362;10.012;2023-09-19T01:31:45;21.20;94.30
5520;DHT22;2782;52.362;10.012;2023-09-19T01:32:47;21.30;94.40
5520;DHT22;2782;52.362;10.012;2023-09-19T01:33:55;21.30;94.40
5520;DHT22;2782;52.362;10.012;2023-09-19T01:34:59;21.20;94.30
5520;DHT22;2782;52.362;10.012;2023-09-19T01:36:04;21.30;94.30
5520;DHT22;2782;52.362;10.012;2023-09-19T01:37:06;21.30;94.30
5520;DHT22;2782;52.362;10.012;2023-09-19T01:38:08;21.30;94.30
5520;DHT22;2782;52.362;10.012;2023-09-19T01:39:12;21.30;94.20
5520;DHT22;2782;52.362;10.012;2023-09-19T01:40:17;21.30;94.10
5520;DHT22;2782;52.362;10.012;2023-09-19T01:41:25;21.30;94.10
5520;DHT22;2782;52.362;10.012;2023-09-19T01:42:39;21.30;94.10
5520;DHT22;2782;52.362;10.012;2023-09-19T01:43:43;21.30;94.10
5520;DHT22;2782;52.362;10.012;2023-09-19T01:44:54;21.30;94.20
5520;DHT22;2782;52.362;10.012;2023-09-19T01:46:05;21.30;94.10
5520;DHT22;2782;52.362;10.012;2023-09-19T01:47:19;21.30;94.10
5520;DHT22;2782;52.362;10.012;2023-09-19T01:48:30;21.30;94.00
5520;DHT22;2782;52.362;10.012;2023-09-19T01:49:39;21.30;94.00
5520;DHT22;2782;52.362;10.012;2023-09-19T01:50:56;21.30;94.00
5520;DHT22;2782;52.362;10.012;2023-09-19T01:52:04;21.30;94.00
5520;DHT22;2782;52.362;10.012;2023-09-19T01:53:13;21.30;94.00
5520;DHT22;2782;52.362;10.012;2023-09-19T01:54:18;21.30;94.00
5520;DHT22;2782;52.362;10.012;2023-09-19T01:55:21;21.30;93.90
5520;DHT22;2782;52.362;10.012;2023-09-19T01:56:35;21.30;94.00
5520;DHT22;2782;52.362;10.012;2023-09-19T01:57:43;21.30;93.90
5520;DHT22;2782;52.362;10.012;2023-09-19T01:58:50;21.30;94.00
5520;DHT22;2782;52.362;10.012;2023-09-19T01:59:57;21.30;93.90
5520;DHT22;2782;52.362;10.012;2023-09-19T02:01:01;21.30;93.80
5520;DHT22;2782;52.362;10.012;2023-09-19T02:02:06;21.30;93.80
5520;DHT22;2782;52.362;10.012;2023-09-19T02:03:09;21.30;93.80
5520;DHT22;2782;52.362;10.012;2023-09-19T02:04:11;21.30;93.70
5520;DHT22;2782;52.362;10.012;2023-09-19T02:05:12;21.20;93.60
5520;DHT22;2782;52.362;10.012;2023-09-19T02:06:14;21.30;93.70
5520;DHT22;2782;52.362;10.012;2023-09-19T02:07:16;21.30;93.70
5520;DHT22;2782;52.362;10.012;2023-09-19T02:08:17;21.30;93.60
5520;DHT22;2782;52.362;10.012;2023-09-19T02:09:20;21.30;93.60
5520;DHT22;2782;52.362;10.012;2023-09-19T02:10:20;21.30;93.60
5520;DHT22;2782;52.362;10.012;2023-09-19T02:11:22;21.30;93.50
5520;DHT22;2782;52.362;10.012;2023-09-19T02:12:23;21.30;93.50
5520;DHT22;2782;52.362;10.012;2023-09-19T02:13:25;21.30;93.50
5520;DHT22;2782;52.362;10.012;2023-09-19T02:14:28;21.30;93.50
5520;DHT22;2782;52.362;10.012;2023-09-19T02:15:30;21.30;93.50
5520;DHT22;2782;52.362;10.012;2023-09-19T02:16:35;21.30;93.50
5520;DHT22;2782;52.362;10.012;2023-09-19T02:17:37;21.30;93.50
5520;DHT22;2782;52.362;10.012;2023-09-19T02:18:38;21.30;93.50
5520;DHT22;2782;52.362;10.012;2023-09-19T02:19:40;21.30;93.40
5520;DHT22;2782;52.362;10.012;2023-09-19T02:20:41;21.30;93.40
5520;DHT22;2782;52.362;10.012;2023-09-19T02:21:43;21.30;93.40
5520;DHT22;2782;52.362;10.012;2023-09-19T02:22:43;21.30;93.40
5520;DHT22;2782;52.362;10.012;2023-09-19T02:23:45;21.30;93.40
5520;DHT22;2782;52.362;10.012;2023-09-19T02:24:47;21.30;93.40
5520;DHT22;2782;52.362;10.012;2023-09-19T02:25:52;21.30;93.40
5520;DHT22;2782;52.362;10.012;2023-09-19T02:26:53;21.30;93.30
5520;DHT22;2782;52.362;10.012;2023-09-19T02:27:56;21.30;93.30
5520;DHT22;2782;52.362;10.012;2023-09-19T02:28:58;21.30;93.30
5520;DHT22;2782;52.362;10.012;2023-09-19T02:30:01;21.30;93.30
5520;DHT22;2782;52.362;10.012;2023-09-19T02:31:03;21.30;93.30
5520;DHT22;2782;52.362;10.012;2023-09-19T02:32:07;21.30;93.30
5520;DHT22;2782;52.362;10.012;2023-09-19T02:33:09;21.20;93.20
5520;DHT22;2782;52.362;10.012;2023-09-19T02:34:11;21.20;93.20
5520;DHT22;2782;52.362;10.012;2023-09-19T02:35:12;21.30;93.20
5520;DHT22;2782;52.362;10.012;2023-09-19T02:36:15;21.30;93.30
5520;DHT22;2782;52.362;10.012;2023-09-19T02:37:17;21.30;93.30
5520;DHT22;2782;52.362;10.012;2023-09-19T02:38:20;21.30;93.20
5520;DHT22;2782;52.362;10.012;2023-09-19T02:39:25;21.30;93.20
5520;DHT22;2782;52.362;10.012;2023-09-19T02:40:26;21.20;93.20
5520;DHT22;2782;52.362;10.012;2023-09-19T02:41:28;21.30;93.30
5520;DHT22;2782;52.362;10.012;2023-09-19T02:42:31;21.20;93.20
5520;DHT22;2782;52.362;10.012;2023-09-19T02:43:31;21.30;93.30
5520;DHT22;2782;52.362;10.012;2023-09-19T02:44:33;21.30;93.20
5520;DHT22;2782;52.362;10.012;2023-09-19T02:45:35;21.20;93.20
5520;DHT22;2782;52.362;10.012;2023-09-19T02:46:37;21.30;93.20
5520;DHT22;2782;52.362;10.012;2023-09-19T02:47:41;21.20;93.10
5520;DHT22;2782;52.362;10.012;2023-09-19T02:48:43;21.20;93.10
5520;DHT22;2782;52.362;10.012;2023-09-19T02:49:44;21.20;93.20
5520;DHT22;2782;52.362;10.012;2023-09-19T02:50:48;21.20;93.20
5520;DHT22;2782;52.362;10.012;2023-09-19T02:51:49;21.20;93.20
5520;DHT22;2782;52.362;10.012;2023-09-19T02:52:52;21.20;93.20
5520;DHT22;2782;52.362;10.012;2023-09-19T02:53:52;21.30;93.20
5520;DHT22;2782;52.362;10.012;2023-09-19T02:54:55;21.20;93.10
5520;DHT22;2782;52.362;10.012;2023-09-19T02:55:55;21.30;93.10
5520;DHT22;2782;52.362;10.012;2023-09-19T02:56:57;21.30;93.10
5520;DHT22;2782;52.362;10.012;2023-09-19T02:57:59;21.30;93.10
5520;DHT22;2782;52.362;10.012;2023-09-19T02:59:01;21.30;93.00
5520;DHT22;2782;52.362;10.012;2023-09-19T03:00:03;21.30;93.00
5520;DHT22;2782;52.362;10.012;2023-09-19T03:01:08;21.30;93.00
5520;DHT22;2782;52.362;10.012;2023-09-19T03:02:11;21.30;93.00
5520;DHT22;2782;52.362;10.012;2023-09-19T03:03:13;21.30;93.00
5520;DHT22;2782;52.362;10.012;2023-09-19T03:04:16;21.30;92.90
5520;DHT22;2782;52.362;10.012;2023-09-19T03:05:20;21.30;93.00
5520;DHT22;2782;52.362;10.012;2023-09-19T03:06:22;21.30;92.90
5520;DHT22;2782;52.362;10.012;2023-09-19T03:07:24;21.30;92.80
5520;DHT22;2782;52.362;10.012;2023-09-19T03:08:26;21.30;92.80
5520;DHT22;2782;52.362;10.012;2023-09-19T03:09:26;21.30;92.80
5520;DHT22;2782;52.362;10.012;2023-09-19T03:10:28;21.30;92.80
5520;DHT22;2782;52.362;10.012;2023-09-19T03:11:30;21.30;92.70
5520;DHT22;2782;52.362;10.012;2023-09-19T03:12:31;21.30;92.70
5520;DHT22;2782;52.362;10.012;2023-09-19T03:13:34;21.30;92.60
5520;DHT22;2782;52.362;10.012;2023-09-19T03:14:36;21.30;92.60
5520;DHT22;2782;52.362;10.012;2023-09-19T03:15:41;21.30;92.60
5520;DHT22;2782;52.362;10.012;2023-09-19T03:16:44;21.30;92.80
5520;DHT22;2782;52.362;10.012;2023-09-19T03:17:45;21.30;92.50
5520;DHT22;2782;52.362;10.012;2023-09-19T03:18:49;21.30;92.60
5520;DHT22;2782;52.362;10.012;2023-09-19T03:19:50;21.30;92.50
5520;DHT22;2782;52.362;10.012;2023-09-19T03:20:55;21.30;92.50
5520;DHT22;2782;52.362;10.012;2023-09-19T03:21:56;21.30;92.50
5520;DHT22;2782;52.362;10.012;2023-09-19T03:22:58;21.30;92.40
5520;DHT22;2782;52.362;10.012;2023-09-19T03:24:00;21.30;92.30
5520;DHT22;2782;52.362;10.012;2023-09-19T03:25:02;21.30;92.40
5520;DHT22;2782;52.362;10.012;2023-09-19T03:26:04;21.30;92.30
5520;DHT22;2782;52.362;10.012;2023-09-19T03:27:08;21.30;92.30
5520;DHT22;2782;52.362;10.012;2023-09-19T03:28:09;21.30;92.20
5520;DHT22;2782;52.362;10.012;2023-09-19T03:29:11;21.30;92.10
5520;DHT22;2782;52.362;10.012;2023-09-19T03:30:12;21.30;92.00
5520;DHT22;2782;52.362;10.012;2023-09-19T03:31:14;21.30;92.00
5520;DHT22;2782;52.362;10.012;2023-09-19T03:32:15;21.30;92.00
5520;DHT22;2782;52.362;10.012;2023-09-19T03:33:17;21.30;92.00
5520;DHT22;2782;52.362;10.012;2023-09-19T03:34:19;21.30;92.00
5520;DHT22;2782;52.362;10.012;2023-09-19T03:35:21;21.30;91.90
5520;DHT22;2782;52.362;10.012;2023-09-19T03:36:21;21.30;91.90
5520;DHT22;2782;52.362;10.012;2023-09-19T03:37:23;21.30;91.90
5520;DHT22;2782;52.362;10.012;2023-09-19T03:38:24;21.30;91.70
5520;DHT22;2782;52.362;10.012;2023-09-19T03:39:26;21.30;91.70
5520;DHT22;2782;52.362;10.012;2023-09-19T03:40:26;21.30;91.80
5520;DHT22;2782;52.362;10.012;2023-09-19T03:41:28;21.20;92.00
5520;DHT22;2782;52.362;10.012;2023-09-19T03:42:29;21.30;91.60
5520;DHT22;2782;52.362;10.012;2023-09-19T03:43:29;21.30;91.50
5520;DHT22;2782;52.362;10.012;2023-09-19T03:44:33;21.30;91.40
5520;DHT22;2782;52.362;10.012;2023-09-19T03:45:33;21.20;91.40
5520;DHT22;2782;52.362;10.012;2023-09-19T03:46:35;21.20;91.40
5520;DHT22;2782;52.362;10.012;2023-09-19T03:47:36;21.30;91.30
5520;DHT22;2782;52.362;10.012;2023-09-19T03:48:38;21.20;91.30
5520;DHT22;2782;52.362;10.012;2023-09-19T03:49:40;21.30;91.40
5520;DHT22;2782;52.362;10.012;2023-09-19T03:50:42;21.30;91.40
5520;DHT22;2782;52.362;10.012;2023-09-19T03:51:44;21.20;91.40
5520;DHT22;2782;52.362;10.012;2023-09-19T03:52:46;21.30;91.40
5520;DHT22;2782;52.362;10.012;2023-09-19T03:53:46;21.30;91.40
5520;DHT22;2782;52.362;10.012;2023-09-19T03:54:50;21.20;91.40
5520;DHT22;2782;52.362;10.012;2023-09-19T03:55:51;21.20;91.30
5520;DHT22;2782;52.362;10.012;2023-09-19T03:56:53;21.30;91.30
5520;DHT22;2782;52.362;10.012;2023-09-19T03:57:53;21.30;91.30
5520;DHT22;2782;52.362;10.012;2023-09-19T03:58:55;21.20;91.20
5520;DHT22;2782;52.362;10.012;2023-09-19T03:59:56;21.30;91.30
5520;DHT22;2782;52.362;10.012;2023-09-19T04:00:58;21.20;91.20
5520;DHT22;2782;52.362;10.012;2023-09-19T04:01:58;21.30;91.50
5520;DHT22;2782;52.362;10.012;2023-09-19T04:03:00;21.30;91.20
5520;DHT22;2782;52.362;10.012;2023-09-19T04:04:06;21.30;91.20
5520;DHT22;2782;52.362;10.012;2023-09-19T04:05:10;21.30;91.30
5520;DHT22;2782;52.362;10.012;2023-09-19T04:06:11;21.30;91.30
5520;DHT22;2782;52.362;10.012;2023-09-19T04:07:12;21.30;91.30
5520;DHT22;2782;52.362;10.012;2023-09-19T04:08:14;21.30;91.30
5520;DHT22;2782;52.362;10.012;2023-09-19T04:09:14;21.30;91.30
5520;DHT22;2782;52.362;10.012;2023-09-19T04:10:16;21.30;91.30
5520;DHT22;2782;52.362;10.012;2023-09-19T04:11:17;21.30;91.50
5520;DHT22;2782;52.362;10.012;2023-09-19T04:12:19;21.30;91.60
5520;DHT22;2782;52.362;10.012;2023-09-19T04:13:20;21.30;91.80
5520;DHT22;2782;52.362;10.012;2023-09-19T04:14:22;21.30;91.80
5520;DHT22;2782;52.362;10.012;2023-09-19T04:15:23;21.40;91.90
5520;DHT22;2782;52.362;10.012;2023-09-19T04:16:25;21.40;92.10
5520;DHT22;2782;52.362;10.012;2023-09-19T04:17:25;21.40;92.00
5520;DHT22;2782;52.362;10.012;2023-09-19T04:18:27;21.40;92.10
5520;DHT22;2782;52.362;10.012;2023-09-19T04:19:28;21.40;92.10
5520;DHT22;2782;52.362;10.012;2023-09-19T04:20:31;21.50;92.10
5520;DHT22;2782;52.362;10.012;2023-09-19T04:21:32;21.50;92.30
5520;DHT22;2782;52.362;10.012;2023-09-19T04:22:34;21.50;92.40
5520;DHT22;2782;52.362;10.012;2023-09-19T04:23:35;21.50;92.50
5520;DHT22;2782;52.362;10.012;2023-09-19T04:24:37;21.50;92.50
5520;DHT22;2782;52.362;10.012;2023-09-19T04:25:40;21.50;92.60
5520;DHT22;2782;52.362;10.012;2023-09-19T04:26:42;21.50;92.40
5520;DHT22;2782;52.362;10.012;2023-09-19T04:27:44;21.50;92.40
5520;DHT22;2782;52.362;10.012;2023-09-19T04:28:44;21.60;92.60
5520;DHT22;2782;52.362;10.012;2023-09-19T04:29:46;21.50;92.50
5520;DHT22;2782;52.362;10.012;2023-09-19T04:30:47;21.50;92.50
5520;DHT22;2782;52.362;10.012;2023-09-19T04:31:48;21.60;92.40
5520;DHT22;2782;52.362;10.012;2023-09-19T04:32:49;21.60;91.90
5520;DHT22;2782;52.362;10.012;2023-09-19T04:33:51;21.50;91.70
5520;DHT22;2782;52.362;10.012;2023-09-19T04:34:53;21.50;91.50
5520;DHT22;2782;52.362;10.012;2023-09-19T04:35:56;21.50;91.50
5520;DHT22;2782;52.362;10.012;2023-09-19T04:36:57;21.40;91.50
5520;DHT22;2782;52.362;10.012;2023-09-19T04:38:01;21.40;91.10
5520;DHT22;2782;52.362;10.012;2023-09-19T04:39:01;21.40;91.30
5520;DHT22;2782;52.362;10.012;2023-09-19T04:40:07;21.40;91.10
5520;DHT22;2782;52.362;10.012;2023-09-19T04:41:12;21.40;90.90
5520;DHT22;2782;52.362;10.012;2023-09-19T04:42:15;21.30;90.70
5520;DHT22;2782;52.362;10.012;2023-09-19T04:43:16;21.20;90.60
5520;DHT22;2782;52.362;10.012;2023-09-19T04:44:18;21.20;90.60
5520;DHT22;2782;52.362;10.012;2023-09-19T04:45:18;21.20;90.50
5520;DHT22;2782;52.362;10.012;2023-09-19T04:46:20;21.10;90.40
5520;DHT22;2782;52.362;10.012;2023-09-19T04:47:21;21.10;90.60
5520;DHT22;2782;52.362;10.012;2023-09-19T04:48:23;21.10;90.80
5520;DHT22;2782;52.362;10.012;2023-09-19T04:49:25;21.10;90.40
5520;DHT22;2782;52.362;10.012;2023-09-19T04:50:26;21.00;90.30
5520;DHT22;2782;52.362;10.012;2023-09-19T04:51:29;21.00;90.30
5520;DHT22;2782;52.362;10.012;2023-09-19T04:52:34;21.00;90.30
5520;DHT22;2782;52.362;10.012;2023-09-19T04:53:36;20.90;90.20
5520;DHT22;2782;52.362;10.012;2023-09-19T04:54:37;20.90;90.20
5520;DHT22;2782;52.362;10.012;2023-09-19T04:55:40;20.90;90.20
5520;DHT22;2782;52.362;10.012;2023-09-19T04:56:40;20.80;90.20
5520;DHT22;2782;52.362;10.012;2023-09-19T04:57:43;20.80;90.10
5520;DHT22;2782;52.362;10.012;2023-09-19T04:58:45;20.80;90.10
5520;DHT22;2782;52.362;10.012;2023-09-19T04:59:53;20.80;90.00
5520;DHT22;2782;52.362;10.012;2023-09-19T05:00:57;20.70;89.90
5520;DHT22;2782;52.362;10.012;2023-09-19T05:01:58;20.70;90.00
5520;DHT22;2782;52.362;10.012;2023-09-19T05:03:00;20.70;89.90
5520;DHT22;2782;52.362;10.012;2023-09-19T05:04:01;20.70;89.80
5520;DHT22;2782;52.362;10.012;2023-09-19T05:05:06;20.60;89.60
5520;DHT22;2782;52.362;10.012;2023-09-19T05:06:07;20.60;89.40
5520;DHT22;2782;52.362;10.012;2023-09-19T05:07:09;20.60;89.60
5520;DHT22;2782;52.362;10.012;2023-09-19T05:08:12;20.60;89.50
5520;DHT22;2782;52.362;10.012;2023-09-19T05:09:14;20.60;89.50
5520;DHT22;2782;52.362;10.012;2023-09-19T05:10:17;20.50;89.20
5520;DHT22;2782;52.362;10.012;2023-09-19T05:11:19;20.50;90.00
5520;DHT22;2782;52.362;10.012;2023-09-19T05:12:23;20.50;89.50
5520;DHT22;2782;52.362;10.012;2023-09-19T05:13:25;20.50;89.40
5520;DHT22;2782;52.362;10.012;2023-09-19T05:14:27;20.40;89.40
5520;DHT22;2782;52.362;10.012;2023-09-19T05:15:28;20.40;89.20
5520;DHT22;2782;52.362;10.012;2023-09-19T05:16:30;20.40;89.10
5520;DHT22;2782;52.362;10.012;2023-09-19T05:17:31;20.40;89.20
5520;DHT22;2782;52.362;10.012;2023-09-19T05:18:33;20.40;89.00
5520;DHT22;2782;52.362;10.012;2023-09-19T05:19:34;20.40;89.20
5520;DHT22;2782;52.362;10.012;2023-09-19T05:20:35;20.40;89.10
5520;DHT22;2782;52.362;10.012;2023-09-19T05:21:39;20.40;89.40
5520;DHT22;2782;52.362;10.012;2023-09-19T05:22:41;20.30;89.40
5520;DHT22;2782;52.362;10.012;2023-09-19T05:23:43;20.30;89.50
5520;DHT22;2782;52.362;10.012;2023-09-19T05:24:45;20.30;89.20
5520;DHT22;2782;52.362;10.012;2023-09-19T05:25:48;20.30;89.50
5520;DHT22;2782;52.362;10.012;2023-09-19T05:26:49;20.30;89.50
5520;DHT22;2782;52.362;10.012;2023-09-19T05:27:53;20.30;89.70
5520;DHT22;2782;52.362;10.012;2023-09-19T05:28:53;20.20;89.40
5520;DHT22;2782;52.362;10.012;2023-09-19T05:29:54;20.20;89.10
5520;DHT22;2782;52.362;10.012;2023-09-19T05:30:56;20.20;89.10
5520;DHT22;2782;52.362;10.012;2023-09-19T05:31:57;20.20;89.20
5520;DHT22;2782;52.362;10.012;2023-09-19T05:32:59;20.20;89.50
5520;DHT22;2782;52.362;10.012;2023-09-19T05:33:59;20.20;89.50
5520;DHT22;2782;52.362;10.012;2023-09-19T05:35:01;20.20;89.60
5520;DHT22;2782;52.362;10.012;2023-09-19T05:36:02;20.30;89.80
5520;DHT22;2782;52.362;10.012;2023-09-19T05:37:04;20.30;90.00
5520;DHT22;2782;52.362;10.012;2023-09-19T05:38:08;20.30;90.10
5520;DHT22;2782;52.362;10.012;2023-09-19T05:39:12;20.40;90.20
5520;DHT22;2782;52.362;10.012;2023-09-19T05:40:12;20.40;90.20
5520;DHT22;2782;52.362;10.012;2023-09-19T05:41:14;20.40;90.20
5520;DHT22;2782;52.362;10.012;2023-09-19T05:42:16;20.40;90.10
5520;DHT22;2782;52.362;10.012;2023-09-19T05:43:18;20.50;90.20
5520;DHT22;2782;52.362;10.012;2023-09-19T05:44:19;20.50;90.10
5520;DHT22;2782;52.362;10.012;2023-09-19T05:45:21;20.50;90.10
5520;DHT22;2782;52.362;10.012;2023-09-19T05:46:22;20.60;90.10
5520;DHT22;2782;52.362;10.012;2023-09-19T05:47:24;20.60;90.10
5520;DHT22;2782;52.362;10.012;2023-09-19T05:48:25;20.60;90.10
5520;DHT22;2782;52.362;10.012;2023-09-19T05:49:27;20.60;90.00
5520;DHT22;2782;52.362;10.012;2023-09-19T05:50:28;20.70;89.90
5520;DHT22;2782;52.362;10.012;2023-09-19T05:51:30;20.70;90.00
5520;DHT22;2782;52.362;10.012;2023-09-19T05:52:31;20.70;90.10
5520;DHT22;2782;52.362;10.012;2023-09-19T05:53:34;20.80;90.00
5520;DHT22;2782;52.362;10.012;2023-09-19T05:54:34;20.80;90.00
5520;DHT22;2782;52.362;10.012;2023-09-19T05:55:37;20.80;90.00
5520;DHT22;2782;52.362;10.012;2023-09-19T05:56:39;20.80;90.00
5520;DHT22;2782;52.362;10.012;2023-09-19T05:57:39;20.90;90.00
5520;DHT22;2782;52.362;10.012;2023-09-19T05:58:43;20.90;90.10
5520;DHT22;2782;52.362;10.012;2023-09-19T05:59:44;20.90;90.10
5520;DHT22;2782;52.362;10.012;2023-09-19T06:00:47;21.00;90.10
5520;DHT22;2782;52.362;10.012;2023-09-19T06:01:49;21.00;90.20
5520;DHT22;2782;52.362;10.012;2023-09-19T06:02:53;21.00;90.20
5520;DHT22;2782;52.362;10.012;2023-09-19T06:03:54;21.00;90.20
5520;DHT22;2782;52.362;10.012;2023-09-19T06:04:55;21.00;90.20
5520;DHT22;2782;52.362;10.012;2023-09-19T06:05:56;21.00;90.20
5520;DHT22;2782;52.362;10.012;2023-09-19T06:06:58;21.10;90.50
5520;DHT22;2782;52.362;10.012;2023-09-19T06:07:59;21.10;90.20
5520;DHT22;2782;52.362;10.012;2023-09-19T06:09:02;21.10;90.20
5520;DHT22;2782;52.362;10.012;2023-09-19T06:10:06;21.10;90.20
5520;DHT22;2782;52.362;10.012;2023-09-19T06:11:08;21.20;90.20
5520;DHT22;2782;52.362;10.012;2023-09-19T06:12:09;21.10;90.10
5520;DHT22;2782;52.362;10.012;2023-09-19T06:13:13;21.20;90.20
5520;DHT22;2782;52.362;10.012;2023-09-19T06:14:15;21.20;90.20
5520;DHT22;2782;52.362;10.012;2023-09-19T06:15:18;21.20;90.20
5520;DHT22;2782;52.362;10.012;2023-09-19T06:16:19;21.20;90.30
5520;DHT22;2782;52.362;10.012;2023-09-19T06:17:21;21.30;90.30
5520;DHT22;2782;52.362;10.012;2023-09-19T06:18:23;21.20;90.30
5520;DHT22;2782;52.362;10.012;2023-09-19T06:19:26;21.20;90.30
5520;DHT22;2782;52.362;10.012;2023-09-19T06:20:27;21.30;90.30
5520;DHT22;2782;52.362;10.012;2023-09-19T06:21:30;21.30;90.30
5520;DHT22;2782;52.362;10.012;2023-09-19T06:22:32;21.30;90.40
5520;DHT22;2782;52.362;10.012;2023-09-19T06:23:34;21.30;90.40
5520;DHT22;2782;52.362;10.012;2023-09-19T06:24:37;21.30;90.50
5520;DHT22;2782;52.362;10.012;2023-09-19T06:25:38;21.40;90.50
5520;DHT22;2782;52.362;10.012;2023-09-19T06:26:39;21.40;90.90
5520;DHT22;2782;52.362;10.012;2023-09-19T06:27:41;21.40;90.80
5520;DHT22;2782;52.362;10.012;2023-09-19T06:28:43;21.40;90.80
5520;DHT22;2782;52.362;10.012;2023-09-19T06:29:44;21.40;90.90
5520;DHT22;2782;52.362;10.012;2023-09-19T06:30:46;21.40;91.30
5520;DHT22;2782;52.362;10.012;2023-09-19T06:31:47;21.40;91.30
5520;DHT22;2782;52.362;10.012;2023-09-19T06:32:48;21.40;91.30
5520;DHT22;2782;52.362;10.012;2023-09-19T06:33:50;21.40;91.20
5520;DHT22;2782;52.362;10.012;2023-09-19T06:34:52;21.50;91.30
5520;DHT22;2782;52.362;10.012;2023-09-19T06:35:55;21.50;91.40
5520;DHT22;2782;52.362;10.012;2023-09-19T06:37:00;21.50;91.60
5520;DHT22;2782;52.362;10.012;2023-09-19T06:38:02;21.50;91.80
5520;DHT22;2782;52.362;10.012;2023-09-19T06:39:04;21.50;91.90
5520;DHT22;2782;52.362;10.012;2023-09-19T06:40:09;21.50;92.00
5520;DHT22;2782;52.362;10.012;2023-09-19T06:41:14;21.50;92.10
5520;DHT22;2782;52.362;10.012;2023-09-19T06:42:16;21.50;92.10
5520;DHT22;2782;52.362;10.012;2023-09-19T06:43:17;21.50;92.20
5520;DHT22;2782;52.362;10.012;2023-09-19T06:44:19;21.50;92.20